sensor_id;sensor_type;location;lat;lon;timestamp;P1;durP1;ratioP1;P2;durP2;ratioP2
8797;SDS011;4435;50.898;4.734;2022-08-21T00:01:16;5.27;;;3.00;;
8797;SDS011;4435;50.898;4.734;2022-08-21T00:03:45;7.33;;;2.90;;
8797;SDS011;4435;50.898;4.734;2022-08-21T00:06:11;5.13;;;2.90;;
8797;SDS011;4435;50.898;4.734;2022-08-21T00:08:37;3.80;;;2.60;;
8797;SDS011;4435;50.898;4.734;2022-08-21T00:11:03;5.57;;;3.10;;
8797;SDS011;4435;50.898;4.734;2022-08-21T00:13:29;4.07;;;2.77;;
8797;SDS011;4435;50.898;4.734;2022-08-21T00:15:55;5.60;;;3.10;;
8797;SDS011;4435;50.898;4.734;2022-08-21T00:18:22;7.40;;;3.23;;
8797;SDS011;4435;50.898;4.734;2022-08-21T00:20:47;5.90;;;2.90;;
8797;SDS011;4435;50.898;4.734;2022-08-21T00:23:13;5.43;;;3.40;;
8797;SDS011;4435;50.898;4.734;2022-08-21T00:25:41;6.70;;;3.23;;
8797;SDS011;4435;50.898;4.734;2022-08-21T00:28:07;5.53;;;3.10;;
8797;SDS011;4435;50.898;4.734;2022-08-21T00:30:33;5.20;;;3.03;;
8797;SDS011;4435;50.898;4.734;2022-08-21T00:33:00;7.40;;;2.93;;
8797;SDS011;4435;50.898;4.734;2022-08-21T00:35:33;6.60;;;2.97;;
8797;SDS011;4435;50.898;4.734;2022-08-21T00:38:02;6.13;;;3.10;;
8797;SDS011;4435;50.898;4.734;2022-08-21T00:40:31;4.37;;;2.63;;
8797;SDS011;4435;50.898;4.734;2022-08-21T00:43:05;6.13;;;3.17;;
8797;SDS011;4435;50.898;4.734;2022-08-21T00:45:32;4.67;;;2.77;;
8797;SDS011;4435;50.898;4.734;2022-08-21T00:47:59;7.93;;;3.20;;
8797;SDS011;4435;50.898;4.734;2022-08-21T00:50:26;4.03;;;2.50;;
8797;SDS011;4435;50.898;4.734;2022-08-21T00:52:56;7.63;;;2.90;;
8797;SDS011;4435;50.898;4.734;2022-08-21T00:55:23;3.77;;;2.73;;
8797;SDS011;4435;50.898;4.734;2022-08-21T00:57:51;4.37;;;2.83;;
8797;SDS011;4435;50.898;4.734;2022-08-21T01:00:22;4.53;;;2.73;;
8797;SDS011;4435;50.898;4.734;2022-08-21T01:02:54;5.07;;;3.03;;
8797;SDS011;4435;50.898;4.734;2022-08-21T01:05:21;4.43;;;2.70;;
8797;SDS011;4435;50.898;4.734;2022-08-21T01:07:47;4.20;;;2.80;;
8797;SDS011;4435;50.898;4.734;2022-08-21T01:10:13;5.47;;;2.67;;
8797;SDS011;4435;50.898;4.734;2022-08-21T01:12:39;6.10;;;2.80;;
8797;SDS011;4435;50.898;4.734;2022-08-21T01:15:06;7.93;;;2.80;;
8797;SDS011;4435;50.898;4.734;2022-08-21T01:17:33;4.60;;;3.00;;
8797;SDS011;4435;50.898;4.734;2022-08-21T01:20:01;6.20;;;2.93;;
8797;SDS011;4435;50.898;4.734;2022-08-21T01:22:30;7.17;;;2.87;;
8797;SDS011;4435;50.898;4.734;2022-08-21T01:24:55;7.27;;;3.10;;
8797;SDS011;4435;50.898;4.734;2022-08-21T01:27:21;4.73;;;2.50;;
8797;SDS011;4435;50.898;4.734;2022-08-21T01:29:58;5.27;;;3.00;;
8797;SDS011;4435;50.898;4.734;2022-08-21T01:32:33;3.77;;;2.47;;
8797;SDS011;4435;50.898;4.734;2022-08-21T01:34:58;7.77;;;2.77;;
8797;SDS011;4435;50.898;4.734;2022-08-21T01:37:24;5.83;;;2.40;;
8797;SDS011;4435;50.898;4.734;2022-08-21T01:39:50;5.83;;;2.70;;
8797;SDS011;4435;50.898;4.734;2022-08-21T01:42:16;3.80;;;2.43;;
8797;SDS011;4435;50.898;4.734;2022-08-21T01:44:43;4.03;;;2.50;;
8797;SDS011;4435;50.898;4.734;2022-08-21T01:47:09;6.23;;;2.73;;
8797;SDS011;4435;50.898;4.734;2022-08-21T01:49:36;4.30;;;2.40;;
8797;SDS011;4435;50.898;4.734;2022-08-21T01:52:04;4.93;;;2.57;;
8797;SDS011;4435;50.898;4.734;2022-08-21T01:54:30;4.70;;;2.73;;
8797;SDS011;4435;50.898;4.734;2022-08-21T01:56:56;3.70;;;2.60;;
8797;SDS011;4435;50.898;4.734;2022-08-21T01:59:24;5.97;;;2.57;;
8797;SDS011;4435;50.898;4.734;2022-08-21T02:01:51;4.53;;;2.60;;
8797;SDS011;4435;50.898;4.734;2022-08-21T02:04:19;8.77;;;2.80;;
8797;SDS011;4435;50.898;4.734;2022-08-21T02:06:45;4.60;;;2.70;;
8797;SDS011;4435;50.898;4.734;2022-08-21T02:09:12;3.73;;;2.57;;
8797;SDS011;4435;50.898;4.734;2022-08-21T02:11:39;4.67;;;2.70;;
8797;SDS011;4435;50.898;4.734;2022-08-21T02:14:10;6.67;;;2.80;;
8797;SDS011;4435;50.898;4.734;2022-08-21T02:16:38;4.93;;;2.40;;
8797;SDS011;4435;50.898;4.734;2022-08-21T02:19:04;7.00;;;2.63;;
8797;SDS011;4435;50.898;4.734;2022-08-21T02:21:31;3.87;;;2.30;;
8797;SDS011;4435;50.898;4.734;2022-08-21T02:23:56;5.13;;;2.70;;
8797;SDS011;4435;50.898;4.734;2022-08-21T02:26:22;4.73;;;2.30;;
8797;SDS011;4435;50.898;4.734;2022-08-21T02:28:48;9.40;;;2.63;;
8797;SDS011;4435;50.898;4.734;2022-08-21T02:31:14;3.70;;;2.43;;
8797;SDS011;4435;50.898;4.734;2022-08-21T02:33:40;4.60;;;2.27;;
8797;SDS011;4435;50.898;4.734;2022-08-21T02:36:06;8.20;;;3.00;;
8797;SDS011;4435;50.898;4.734;2022-08-21T02:38:34;3.20;;;2.40;;
8797;SDS011;4435;50.898;4.734;2022-08-21T02:41:04;5.70;;;2.50;;
8797;SDS011;4435;50.898;4.734;2022-08-21T02:43:35;4.47;;;2.47;;
8797;SDS011;4435;50.898;4.734;2022-08-21T02:46:02;6.00;;;2.47;;
8797;SDS011;4435;50.898;4.734;2022-08-21T02:48:29;4.40;;;2.47;;
8797;SDS011;4435;50.898;4.734;2022-08-21T02:53:25;4.07;;;2.27;;
8797;SDS011;4435;50.898;4.734;2022-08-21T02:55:51;3.27;;;2.10;;
8797;SDS011;4435;50.898;4.734;2022-08-21T02:58:20;4.10;;;2.30;;
8797;SDS011;4435;50.898;4.734;2022-08-21T03:00:48;5.13;;;2.40;;
8797;SDS011;4435;50.898;4.734;2022-08-21T03:03:15;5.83;;;2.43;;
8797;SDS011;4435;50.898;4.734;2022-08-21T03:05:42;5.57;;;2.40;;
8797;SDS011;4435;50.898;4.734;2022-08-21T03:08:09;6.37;;;2.70;;
8797;SDS011;4435;50.898;4.734;2022-08-21T03:10:40;6.73;;;2.67;;
8797;SDS011;4435;50.898;4.734;2022-08-21T03:13:08;4.80;;;2.30;;
8797;SDS011;4435;50.898;4.734;2022-08-21T03:15:35;4.33;;;2.50;;
8797;SDS011;4435;50.898;4.734;2022-08-21T03:18:01;7.10;;;2.37;;
8797;SDS011;4435;50.898;4.734;2022-08-21T03:20:28;4.83;;;2.10;;
8797;SDS011;4435;50.898;4.734;2022-08-21T03:22:54;3.10;;;1.87;;
8797;SDS011;4435;50.898;4.734;2022-08-21T03:25:24;6.33;;;2.30;;
8797;SDS011;4435;50.898;4.734;2022-08-21T03:27:51;5.80;;;2.20;;
8797;SDS011;4435;50.898;4.734;2022-08-21T03:30:17;5.77;;;2.50;;
8797;SDS011;4435;50.898;4.734;2022-08-21T03:32:45;5.30;;;2.40;;
8797;SDS011;4435;50.898;4.734;2022-08-21T03:35:12;8.33;;;2.40;;
8797;SDS011;4435;50.898;4.734;2022-08-21T03:37:39;6.33;;;2.30;;
8797;SDS011;4435;50.898;4.734;2022-08-21T03:40:06;5.87;;;2.50;;
8797;SDS011;4435;50.898;4.734;2022-08-21T03:42:33;5.10;;;2.20;;
8797;SDS011;4435;50.898;4.734;2022-08-21T03:45:00;5.73;;;2.80;;
8797;SDS011;4435;50.898;4.734;2022-08-21T03:47:26;5.60;;;2.37;;
8797;SDS011;4435;50.898;4.734;2022-08-21T03:49:52;6.47;;;2.50;;
8797;SDS011;4435;50.898;4.734;2022-08-21T03:52:18;5.30;;;2.23;;
8797;SDS011;4435;50.898;4.734;2022-08-21T03:54:44;4.20;;;1.90;;
8797;SDS011;4435;50.898;4.734;2022-08-21T03:57:10;5.40;;;2.20;;
8797;SDS011;4435;50.898;4.734;2022-08-21T03:59:36;5.07;;;2.40;;
8797;SDS011;4435;50.898;4.734;2022-08-21T04:02:04;5.50;;;2.30;;
8797;SDS011;4435;50.898;4.734;2022-08-21T04:04:32;3.80;;;2.10;;
8797;SDS011;4435;50.898;4.734;2022-08-21T04:06:58;4.70;;;2.37;;
8797;SDS011;4435;50.898;4.734;2022-08-21T04:09:24;8.27;;;2.73;;
8797;SDS011;4435;50.898;4.734;2022-08-21T04:11:51;6.37;;;2.50;;
8797;SDS011;4435;50.898;4.734;2022-08-21T04:14:17;3.93;;;2.33;;
8797;SDS011;4435;50.898;4.734;2022-08-21T04:16:43;5.27;;;2.17;;
8797;SDS011;4435;50.898;4.734;2022-08-21T04:19:10;5.50;;;2.17;;
8797;SDS011;4435;50.898;4.734;2022-08-21T04:21:38;3.90;;;2.40;;
8797;SDS011;4435;50.898;4.734;2022-08-21T04:24:05;5.60;;;2.23;;
8797;SDS011;4435;50.898;4.734;2022-08-21T04:26:32;5.00;;;2.17;;
8797;SDS011;4435;50.898;4.734;2022-08-21T04:29:03;4.93;;;2.20;;
8797;SDS011;4435;50.898;4.734;2022-08-21T04:31:31;6.20;;;2.43;;
8797;SDS011;4435;50.898;4.734;2022-08-21T04:33:58;4.17;;;2.60;;
8797;SDS011;4435;50.898;4.734;2022-08-21T04:36:24;6.03;;;2.50;;
8797;SDS011;4435;50.898;4.734;2022-08-21T04:38:50;5.87;;;2.20;;
8797;SDS011;4435;50.898;4.734;2022-08-21T04:41:16;4.30;;;2.23;;
8797;SDS011;4435;50.898;4.734;2022-08-21T04:43:42;4.93;;;2.30;;
8797;SDS011;4435;50.898;4.734;2022-08-21T04:46:08;5.23;;;2.20;;
8797;SDS011;4435;50.898;4.734;2022-08-21T04:48:34;3.87;;;2.20;;
8797;SDS011;4435;50.898;4.734;2022-08-21T04:51:05;8.70;;;2.53;;
8797;SDS011;4435;50.898;4.734;2022-08-21T04:53:47;7.07;;;2.33;;
8797;SDS011;4435;50.898;4.734;2022-08-21T04:57:05;4.80;;;2.17;;
8797;SDS011;4435;50.898;4.734;2022-08-21T04:59:17;6.27;;;2.10;;
8797;SDS011;4435;50.898;4.734;2022-08-21T05:01:46;4.67;;;2.10;;
8797;SDS011;4435;50.898;4.734;2022-08-21T05:04:12;5.03;;;2.37;;
8797;SDS011;4435;50.898;4.734;2022-08-21T05:06:42;3.87;;;2.00;;
8797;SDS011;4435;50.898;4.734;2022-08-21T05:09:12;3.70;;;2.10;;
8797;SDS011;4435;50.898;4.734;2022-08-21T05:11:40;3.90;;;1.80;;
8797;SDS011;4435;50.898;4.734;2022-08-21T05:14:06;4.63;;;2.07;;
8797;SDS011;4435;50.898;4.734;2022-08-21T05:16:32;5.27;;;2.30;;
8797;SDS011;4435;50.898;4.734;2022-08-21T05:18:58;3.97;;;2.10;;
8797;SDS011;4435;50.898;4.734;2022-08-21T05:21:24;5.53;;;2.33;;
8797;SDS011;4435;50.898;4.734;2022-08-21T05:23:49;6.13;;;2.00;;
8797;SDS011;4435;50.898;4.734;2022-08-21T05:26:15;5.20;;;2.10;;
8797;SDS011;4435;50.898;4.734;2022-08-21T05:28:41;5.17;;;2.10;;
8797;SDS011;4435;50.898;4.734;2022-08-21T05:31:06;5.83;;;2.10;;
8797;SDS011;4435;50.898;4.734;2022-08-21T05:33:33;4.90;;;2.13;;
8797;SDS011;4435;50.898;4.734;2022-08-21T05:35:58;3.70;;;1.93;;
8797;SDS011;4435;50.898;4.734;2022-08-21T05:38:26;4.93;;;2.23;;
8797;SDS011;4435;50.898;4.734;2022-08-21T05:40:53;8.87;;;2.17;;
8797;SDS011;4435;50.898;4.734;2022-08-21T05:43:19;5.73;;;2.07;;
8797;SDS011;4435;50.898;4.734;2022-08-21T05:45:45;6.00;;;2.40;;
8797;SDS011;4435;50.898;4.734;2022-08-21T05:48:17;4.20;;;2.03;;
8797;SDS011;4435;50.898;4.734;2022-08-21T05:50:46;4.13;;;1.90;;
8797;SDS011;4435;50.898;4.734;2022-08-21T05:53:14;5.27;;;2.10;;
8797;SDS011;4435;50.898;4.734;2022-08-21T05:55:40;5.13;;;2.03;;
8797;SDS011;4435;50.898;4.734;2022-08-21T05:58:07;4.73;;;2.20;;
8797;SDS011;4435;50.898;4.734;2022-08-21T06:00:33;6.43;;;2.07;;
8797;SDS011;4435;50.898;4.734;2022-08-21T06:02:59;5.87;;;2.40;;
8797;SDS011;4435;50.898;4.734;2022-08-21T06:05:25;4.80;;;2.00;;
8797;SDS011;4435;50.898;4.734;2022-08-21T06:07:51;5.47;;;2.20;;
8797;SDS011;4435;50.898;4.734;2022-08-21T06:10:17;5.10;;;1.93;;
8797;SDS011;4435;50.898;4.734;2022-08-21T06:12:43;5.83;;;2.27;;
8797;SDS011;4435;50.898;4.734;2022-08-21T06:15:10;5.17;;;2.10;;
8797;SDS011;4435;50.898;4.734;2022-08-21T06:17:36;5.67;;;2.27;;
8797;SDS011;4435;50.898;4.734;2022-08-21T06:20:02;4.47;;;2.00;;
8797;SDS011;4435;50.898;4.734;2022-08-21T06:22:29;4.83;;;2.30;;
8797;SDS011;4435;50.898;4.734;2022-08-21T06:24:55;5.07;;;2.37;;
8797;SDS011;4435;50.898;4.734;2022-08-21T06:27:21;8.63;;;2.17;;
8797;SDS011;4435;50.898;4.734;2022-08-21T06:29:46;2.80;;;1.90;;
8797;SDS011;4435;50.898;4.734;2022-08-21T06:32:12;7.30;;;2.37;;
8797;SDS011;4435;50.898;4.734;2022-08-21T06:34:39;5.23;;;2.37;;
8797;SDS011;4435;50.898;4.734;2022-08-21T06:37:05;6.63;;;2.10;;
8797;SDS011;4435;50.898;4.734;2022-08-21T06:39:32;7.23;;;2.30;;
8797;SDS011;4435;50.898;4.734;2022-08-21T06:41:58;5.07;;;2.37;;
8797;SDS011;4435;50.898;4.734;2022-08-21T06:44:25;6.90;;;2.13;;
8797;SDS011;4435;50.898;4.734;2022-08-21T06:46:51;5.17;;;2.17;;
8797;SDS011;4435;50.898;4.734;2022-08-21T06:49:16;4.97;;;2.23;;
8797;SDS011;4435;50.898;4.734;2022-08-21T06:51:42;4.07;;;1.80;;
8797;SDS011;4435;50.898;4.734;2022-08-21T06:54:08;6.00;;;2.20;;
8797;SDS011;4435;50.898;4.734;2022-08-21T06:56:34;4.67;;;2.17;;
8797;SDS011;4435;50.898;4.734;2022-08-21T06:59:02;6.37;;;2.17;;
8797;SDS011;4435;50.898;4.734;2022-08-21T07:01:30;5.80;;;2.27;;
8797;SDS011;4435;50.898;4.734;2022-08-21T07:03:56;5.40;;;2.37;;
8797;SDS011;4435;50.898;4.734;2022-08-21T07:06:21;5.17;;;2.07;;
8797;SDS011;4435;50.898;4.734;2022-08-21T07:08:47;9.03;;;2.30;;
8797;SDS011;4435;50.898;4.734;2022-08-21T07:11:20;5.60;;;2.60;;
8797;SDS011;4435;50.898;4.734;2022-08-21T07:13:50;6.23;;;2.13;;
8797;SDS011;4435;50.898;4.734;2022-08-21T07:16:18;6.37;;;2.10;;
8797;SDS011;4435;50.898;4.734;2022-08-21T07:18:44;4.33;;;2.10;;
8797;SDS011;4435;50.898;4.734;2022-08-21T07:21:10;4.87;;;2.27;;
8797;SDS011;4435;50.898;4.734;2022-08-21T07:23:40;7.27;;;2.27;;
8797;SDS011;4435;50.898;4.734;2022-08-21T07:26:08;5.10;;;2.20;;
8797;SDS011;4435;50.898;4.734;2022-08-21T07:28:34;4.73;;;2.27;;
8797;SDS011;4435;50.898;4.734;2022-08-21T07:31:00;4.70;;;2.37;;
8797;SDS011;4435;50.898;4.734;2022-08-21T07:33:28;5.03;;;2.07;;
8797;SDS011;4435;50.898;4.734;2022-08-21T07:35:55;8.83;;;2.30;;
8797;SDS011;4435;50.898;4.734;2022-08-21T07:38:21;7.80;;;2.20;;
8797;SDS011;4435;50.898;4.734;2022-08-21T07:40:48;7.40;;;2.10;;
8797;SDS011;4435;50.898;4.734;2022-08-21T07:43:15;8.07;;;2.47;;
8797;SDS011;4435;50.898;4.734;2022-08-21T07:45:43;4.63;;;2.50;;
8797;SDS011;4435;50.898;4.734;2022-08-21T07:48:10;7.93;;;2.20;;
8797;SDS011;4435;50.898;4.734;2022-08-21T07:50:36;6.87;;;2.30;;
8797;SDS011;4435;50.898;4.734;2022-08-21T07:53:02;5.47;;;2.20;;
8797;SDS011;4435;50.898;4.734;2022-08-21T07:55:29;4.77;;;2.07;;
8797;SDS011;4435;50.898;4.734;2022-08-21T07:57:55;5.20;;;1.93;;
8797;SDS011;4435;50.898;4.734;2022-08-21T08:00:22;6.63;;;1.97;;
8797;SDS011;4435;50.898;4.734;2022-08-21T08:02:53;4.40;;;1.80;;
8797;SDS011;4435;50.898;4.734;2022-08-21T08:05:21;7.03;;;2.10;;
8797;SDS011;4435;50.898;4.734;2022-08-21T08:07:49;5.27;;;2.10;;
8797;SDS011;4435;50.898;4.734;2022-08-21T08:10:15;5.90;;;1.97;;
8797;SDS011;4435;50.898;4.734;2022-08-21T08:12:41;7.03;;;1.83;;
8797;SDS011;4435;50.898;4.734;2022-08-21T08:15:09;7.37;;;1.90;;
8797;SDS011;4435;50.898;4.734;2022-08-21T08:17:37;8.57;;;2.17;;
8797;SDS011;4435;50.898;4.734;2022-08-21T08:20:04;4.63;;;1.40;;
8797;SDS011;4435;50.898;4.734;2022-08-21T08:22:30;4.30;;;1.90;;
8797;SDS011;4435;50.898;4.734;2022-08-21T08:24:56;3.87;;;1.80;;
8797;SDS011;4435;50.898;4.734;2022-08-21T08:27:22;6.87;;;1.93;;
8797;SDS011;4435;50.898;4.734;2022-08-21T08:29:49;4.77;;;1.60;;
8797;SDS011;4435;50.898;4.734;2022-08-21T08:32:15;4.07;;;1.70;;
8797;SDS011;4435;50.898;4.734;2022-08-21T08:34:41;5.87;;;1.97;;
8797;SDS011;4435;50.898;4.734;2022-08-21T08:37:07;4.07;;;1.60;;
8797;SDS011;4435;50.898;4.734;2022-08-21T08:39:34;3.20;;;1.53;;
8797;SDS011;4435;50.898;4.734;2022-08-21T08:42:08;5.73;;;1.80;;
8797;SDS011;4435;50.898;4.734;2022-08-21T08:44:48;5.97;;;1.90;;
8797;SDS011;4435;50.898;4.734;2022-08-21T08:47:20;5.87;;;1.80;;
8797;SDS011;4435;50.898;4.734;2022-08-21T08:49:53;7.43;;;2.13;;
8797;SDS011;4435;50.898;4.734;2022-08-21T08:52:30;6.70;;;2.17;;
8797;SDS011;4435;50.898;4.734;2022-08-21T08:55:06;6.47;;;1.80;;
8797;SDS011;4435;50.898;4.734;2022-08-21T08:57:35;7.43;;;2.10;;
8797;SDS011;4435;50.898;4.734;2022-08-21T09:00:07;7.10;;;1.97;;
8797;SDS011;4435;50.898;4.734;2022-08-21T09:02:37;7.43;;;2.10;;
8797;SDS011;4435;50.898;4.734;2022-08-21T09:05:04;6.23;;;2.07;;
8797;SDS011;4435;50.898;4.734;2022-08-21T09:07:36;5.60;;;2.00;;
8797;SDS011;4435;50.898;4.734;2022-08-21T09:24:02;4.47;;;1.93;;
8797;SDS011;4435;50.898;4.734;2022-08-21T09:29:46;6.90;;;1.80;;
8797;SDS011;4435;50.898;4.734;2022-08-21T09:32:26;6.93;;;1.93;;
8797;SDS011;4435;50.898;4.734;2022-08-21T09:35:04;8.93;;;2.30;;
8797;SDS011;4435;50.898;4.734;2022-08-21T09:37:32;7.53;;;2.30;;
8797;SDS011;4435;50.898;4.734;2022-08-21T09:39:59;10.67;;;2.03;;
8797;SDS011;4435;50.898;4.734;2022-08-21T09:42:28;7.70;;;2.13;;
8797;SDS011;4435;50.898;4.734;2022-08-21T09:45:33;6.83;;;1.93;;
8797;SDS011;4435;50.898;4.734;2022-08-21T09:47:51;6.60;;;2.10;;
8797;SDS011;4435;50.898;4.734;2022-08-21T09:50:24;5.63;;;2.20;;
8797;SDS011;4435;50.898;4.734;2022-08-21T09:52:53;6.67;;;1.80;;
8797;SDS011;4435;50.898;4.734;2022-08-21T09:55:36;7.03;;;2.03;;
8797;SDS011;4435;50.898;4.734;2022-08-21T09:58:30;9.07;;;2.00;;
8797;SDS011;4435;50.898;4.734;2022-08-21T10:01:01;5.13;;;1.90;;
8797;SDS011;4435;50.898;4.734;2022-08-21T10:03:29;4.30;;;1.77;;
8797;SDS011;4435;50.898;4.734;2022-08-21T10:05:59;5.90;;;2.00;;
8797;SDS011;4435;50.898;4.734;2022-08-21T10:08:30;4.50;;;1.73;;
8797;SDS011;4435;50.898;4.734;2022-08-21T10:11:16;5.77;;;1.83;;
8797;SDS011;4435;50.898;4.734;2022-08-21T10:16:38;5.17;;;2.20;;
8797;SDS011;4435;50.898;4.734;2022-08-21T10:19:26;5.07;;;1.80;;
8797;SDS011;4435;50.898;4.734;2022-08-21T10:31:26;8.07;;;2.10;;
8797;SDS011;4435;50.898;4.734;2022-08-21T10:36:37;4.70;;;1.90;;
8797;SDS011;4435;50.898;4.734;2022-08-21T10:40:14;5.23;;;1.80;;
8797;SDS011;4435;50.898;4.734;2022-08-21T10:48:47;5.23;;;1.90;;
8797;SDS011;4435;50.898;4.734;2022-08-21T10:51:39;6.10;;;2.27;;
8797;SDS011;4435;50.898;4.734;2022-08-21T10:54:23;7.37;;;2.73;;
8797;SDS011;4435;50.898;4.734;2022-08-21T10:57:09;6.47;;;2.37;;
8797;SDS011;4435;50.898;4.734;2022-08-21T11:02:44;7.30;;;2.10;;
8797;SDS011;4435;50.898;4.734;2022-08-21T11:07:47;7.03;;;2.13;;
8797;SDS011;4435;50.898;4.734;2022-08-21T11:10:24;5.90;;;2.20;;
8797;SDS011;4435;50.898;4.734;2022-08-21T11:12:56;8.70;;;2.30;;
8797;SDS011;4435;50.898;4.734;2022-08-21T11:15:29;8.27;;;2.30;;
8797;SDS011;4435;50.898;4.734;2022-08-21T11:18:00;5.87;;;2.30;;
8797;SDS011;4435;50.898;4.734;2022-08-21T11:20:44;11.20;;;2.40;;
8797;SDS011;4435;50.898;4.734;2022-08-21T11:23:25;5.07;;;1.90;;
8797;SDS011;4435;50.898;4.734;2022-08-21T11:26:00;7.00;;;2.20;;
8797;SDS011;4435;50.898;4.734;2022-08-21T11:28:33;4.63;;;1.83;;
8797;SDS011;4435;50.898;4.734;2022-08-21T11:31:17;7.27;;;2.20;;
8797;SDS011;4435;50.898;4.734;2022-08-21T11:41:40;5.93;;;2.53;;
8797;SDS011;4435;50.898;4.734;2022-08-21T11:44:23;8.23;;;2.20;;
8797;SDS011;4435;50.898;4.734;2022-08-21T11:50:14;6.47;;;2.10;;
8797;SDS011;4435;50.898;4.734;2022-08-21T11:52:45;12.03;;;2.47;;
8797;SDS011;4435;50.898;4.734;2022-08-21T12:00:32;6.00;;;2.33;;
8797;SDS011;4435;50.898;4.734;2022-08-21T12:03:35;9.40;;;2.20;;
8797;SDS011;4435;50.898;4.734;2022-08-21T12:06:00;5.37;;;1.90;;
8797;SDS011;4435;50.898;4.734;2022-08-21T12:08:34;6.90;;;2.20;;
8797;SDS011;4435;50.898;4.734;2022-08-21T12:13:54;7.00;;;2.33;;
8797;SDS011;4435;50.898;4.734;2022-08-21T12:21:33;5.93;;;2.17;;
8797;SDS011;4435;50.898;4.734;2022-08-21T12:26:53;8.87;;;2.33;;
8797;SDS011;4435;50.898;4.734;2022-08-21T12:29:31;8.97;;;1.83;;
8797;SDS011;4435;50.898;4.734;2022-08-21T12:32:02;6.77;;;2.53;;
8797;SDS011;4435;50.898;4.734;2022-08-21T12:34:35;8.63;;;2.33;;
8797;SDS011;4435;50.898;4.734;2022-08-21T12:40:04;8.93;;;2.57;;
8797;SDS011;4435;50.898;4.734;2022-08-21T12:42:44;6.23;;;2.20;;
8797;SDS011;4435;50.898;4.734;2022-08-21T12:45:29;8.27;;;2.23;;
8797;SDS011;4435;50.898;4.734;2022-08-21T12:47:59;6.47;;;2.50;;
8797;SDS011;4435;50.898;4.734;2022-08-21T12:53:48;5.90;;;2.10;;
8797;SDS011;4435;50.898;4.734;2022-08-21T12:56:26;7.73;;;2.40;;
8797;SDS011;4435;50.898;4.734;2022-08-21T12:58:56;4.87;;;2.10;;
8797;SDS011;4435;50.898;4.734;2022-08-21T13:01:33;5.03;;;1.90;;
8797;SDS011;4435;50.898;4.734;2022-08-21T13:04:06;3.63;;;2.00;;
8797;SDS011;4435;50.898;4.734;2022-08-21T13:06:38;5.63;;;2.23;;
8797;SDS011;4435;50.898;4.734;2022-08-21T13:09:08;8.10;;;2.53;;
8797;SDS011;4435;50.898;4.734;2022-08-21T13:11:39;7.10;;;1.80;;
8797;SDS011;4435;50.898;4.734;2022-08-21T13:14:06;7.40;;;1.83;;
8797;SDS011;4435;50.898;4.734;2022-08-21T13:16:42;6.07;;;2.10;;
8797;SDS011;4435;50.898;4.734;2022-08-21T13:19:11;5.50;;;2.30;;
8797;SDS011;4435;50.898;4.734;2022-08-21T13:21:42;4.40;;;1.90;;
8797;SDS011;4435;50.898;4.734;2022-08-21T13:26:49;4.83;;;2.00;;
8797;SDS011;4435;50.898;4.734;2022-08-21T13:29:17;6.17;;;2.00;;
8797;SDS011;4435;50.898;4.734;2022-08-21T13:31:51;6.43;;;1.80;;
8797;SDS011;4435;50.898;4.734;2022-08-21T13:34:24;6.40;;;2.13;;
8797;SDS011;4435;50.898;4.734;2022-08-21T13:36:54;8.33;;;2.40;;
8797;SDS011;4435;50.898;4.734;2022-08-21T13:39:23;6.97;;;1.90;;
8797;SDS011;4435;50.898;4.734;2022-08-21T13:41:50;6.10;;;2.17;;
8797;SDS011;4435;50.898;4.734;2022-08-21T13:44:22;7.60;;;2.00;;
8797;SDS011;4435;50.898;4.734;2022-08-21T13:46:56;7.93;;;2.40;;
8797;SDS011;4435;50.898;4.734;2022-08-21T13:49:26;8.73;;;4.63;;
8797;SDS011;4435;50.898;4.734;2022-08-21T13:51:56;5.80;;;2.73;;
8797;SDS011;4435;50.898;4.734;2022-08-21T13:54:26;6.50;;;2.70;;
8797;SDS011;4435;50.898;4.734;2022-08-21T13:57:00;5.47;;;1.97;;
8797;SDS011;4435;50.898;4.734;2022-08-21T13:59:27;6.83;;;2.20;;
8797;SDS011;4435;50.898;4.734;2022-08-21T14:04:29;6.60;;;1.97;;
8797;SDS011;4435;50.898;4.734;2022-08-21T14:06:59;5.97;;;2.03;;
8797;SDS011;4435;50.898;4.734;2022-08-21T14:09:39;6.20;;;2.23;;
8797;SDS011;4435;50.898;4.734;2022-08-21T14:12:19;8.00;;;2.57;;
8797;SDS011;4435;50.898;4.734;2022-08-21T14:14:51;4.37;;;1.90;;
8797;SDS011;4435;50.898;4.734;2022-08-21T14:17:27;5.30;;;1.90;;
8797;SDS011;4435;50.898;4.734;2022-08-21T14:19:57;4.03;;;1.80;;
8797;SDS011;4435;50.898;4.734;2022-08-21T14:25:05;4.00;;;1.87;;
8797;SDS011;4435;50.898;4.734;2022-08-21T14:27:35;5.43;;;1.93;;
8797;SDS011;4435;50.898;4.734;2022-08-21T14:30:17;5.40;;;2.00;;
8797;SDS011;4435;50.898;4.734;2022-08-21T14:33:03;6.13;;;2.33;;
8797;SDS011;4435;50.898;4.734;2022-08-21T14:35:34;5.40;;;1.97;;
8797;SDS011;4435;50.898;4.734;2022-08-21T14:37:59;5.33;;;2.20;;
8797;SDS011;4435;50.898;4.734;2022-08-21T14:40:25;5.20;;;2.27;;
8797;SDS011;4435;50.898;4.734;2022-08-21T14:42:51;8.70;;;2.10;;
8797;SDS011;4435;50.898;4.734;2022-08-21T14:45:28;5.77;;;2.47;;
8797;SDS011;4435;50.898;4.734;2022-08-21T14:47:55;5.83;;;2.00;;
8797;SDS011;4435;50.898;4.734;2022-08-21T14:50:23;6.13;;;2.43;;
8797;SDS011;4435;50.898;4.734;2022-08-21T14:52:49;7.77;;;2.60;;
8797;SDS011;4435;50.898;4.734;2022-08-21T14:55:15;6.80;;;2.00;;
8797;SDS011;4435;50.898;4.734;2022-08-21T14:57:44;5.63;;;2.33;;
8797;SDS011;4435;50.898;4.734;2022-08-21T15:00:12;5.27;;;1.93;;
8797;SDS011;4435;50.898;4.734;2022-08-21T15:02:41;4.03;;;1.77;;
8797;SDS011;4435;50.898;4.734;2022-08-21T15:05:07;5.07;;;2.00;;
8797;SDS011;4435;50.898;4.734;2022-08-21T15:07:34;5.07;;;1.87;;
8797;SDS011;4435;50.898;4.734;2022-08-21T15:09:59;8.10;;;2.20;;
8797;SDS011;4435;50.898;4.734;2022-08-21T15:12:26;5.23;;;2.10;;
8797;SDS011;4435;50.898;4.734;2022-08-21T15:14:52;3.93;;;1.70;;
8797;SDS011;4435;50.898;4.734;2022-08-21T15:17:18;5.53;;;2.17;;
8797;SDS011;4435;50.898;4.734;2022-08-21T15:19:44;5.63;;;1.90;;
8797;SDS011;4435;50.898;4.734;2022-08-21T15:22:10;6.67;;;2.47;;
8797;SDS011;4435;50.898;4.734;2022-08-21T15:24:36;7.33;;;2.63;;
8797;SDS011;4435;50.898;4.734;2022-08-21T15:27:02;8.53;;;2.50;;
8797;SDS011;4435;50.898;4.734;2022-08-21T15:29:31;4.80;;;1.97;;
8797;SDS011;4435;50.898;4.734;2022-08-21T15:32:01;6.03;;;2.20;;
8797;SDS011;4435;50.898;4.734;2022-08-21T15:34:40;5.30;;;2.00;;
8797;SDS011;4435;50.898;4.734;2022-08-21T15:37:06;6.30;;;1.93;;
8797;SDS011;4435;50.898;4.734;2022-08-21T15:39:33;8.47;;;2.47;;
8797;SDS011;4435;50.898;4.734;2022-08-21T15:42:00;3.90;;;1.80;;
8797;SDS011;4435;50.898;4.734;2022-08-21T15:44:26;7.27;;;2.07;;
8797;SDS011;4435;50.898;4.734;2022-08-21T15:46:53;5.03;;;1.80;;
8797;SDS011;4435;50.898;4.734;2022-08-21T15:49:19;5.97;;;2.13;;
8797;SDS011;4435;50.898;4.734;2022-08-21T15:51:45;4.80;;;2.00;;
8797;SDS011;4435;50.898;4.734;2022-08-21T15:54:11;5.13;;;1.97;;
8797;SDS011;4435;50.898;4.734;2022-08-21T15:56:37;6.30;;;2.10;;
8797;SDS011;4435;50.898;4.734;2022-08-21T15:59:06;5.17;;;2.07;;
8797;SDS011;4435;50.898;4.734;2022-08-21T16:01:37;6.43;;;2.13;;
8797;SDS011;4435;50.898;4.734;2022-08-21T16:04:04;3.67;;;1.67;;
8797;SDS011;4435;50.898;4.734;2022-08-21T16:06:31;6.70;;;2.10;;
8797;SDS011;4435;50.898;4.734;2022-08-21T16:08:57;6.13;;;2.00;;
8797;SDS011;4435;50.898;4.734;2022-08-21T16:11:24;6.00;;;2.10;;
8797;SDS011;4435;50.898;4.734;2022-08-21T16:13:50;7.47;;;2.47;;
8797;SDS011;4435;50.898;4.734;2022-08-21T16:16:18;4.90;;;2.20;;
8797;SDS011;4435;50.898;4.734;2022-08-21T16:18:46;6.00;;;2.20;;
8797;SDS011;4435;50.898;4.734;2022-08-21T16:21:13;6.60;;;2.23;;
8797;SDS011;4435;50.898;4.734;2022-08-21T16:23:39;5.40;;;1.77;;
8797;SDS011;4435;50.898;4.734;2022-08-21T16:26:05;5.93;;;2.20;;
8797;SDS011;4435;50.898;4.734;2022-08-21T16:28:33;7.00;;;2.30;;
8797;SDS011;4435;50.898;4.734;2022-08-21T16:31:01;7.57;;;2.00;;
8797;SDS011;4435;50.898;4.734;2022-08-21T16:33:37;5.90;;;2.10;;
8797;SDS011;4435;50.898;4.734;2022-08-21T16:36:09;3.57;;;1.77;;
8797;SDS011;4435;50.898;4.734;2022-08-21T16:38:35;9.20;;;2.10;;
8797;SDS011;4435;50.898;4.734;2022-08-21T16:41:03;5.83;;;2.00;;
8797;SDS011;4435;50.898;4.734;2022-08-21T16:43:31;8.23;;;2.17;;
8797;SDS011;4435;50.898;4.734;2022-08-21T16:45:58;4.33;;;1.80;;
8797;SDS011;4435;50.898;4.734;2022-08-21T16:48:25;7.47;;;2.50;;
8797;SDS011;4435;50.898;4.734;2022-08-21T16:50:53;5.67;;;1.83;;
8797;SDS011;4435;50.898;4.734;2022-08-21T16:53:19;5.60;;;2.03;;
8797;SDS011;4435;50.898;4.734;2022-08-21T16:55:45;7.20;;;2.07;;